Boynton Beach, FL (33437)

11:19 AM EST on March 03, 2015 (GMT -0500)
Valencia Pointe | Change Station
CLOSE
Current Station
Personal Weather Station
Location: Boynton Beach, FL
Elevation: 33 ft
Nearby Weather Stations

Elev 33 ft 26.51 °N, 80.16 °W | Updated 0 second ago

Mostly Cloudy
Mostly Cloudy
78.7 °F
Feels Like 81 °F
N
8.0
Wind Variable Wind from ENE

Today
High -- | Low -- °F
--% Chance of Precip.
Yesterday
High -- | Low -- °F
Precip. -- in
6:42 AM 6:22 PM
Waxing Gibbous, 96% visible
Pressure 30.22 in
Visibility 10.0 miles
Clouds Scattered Clouds 2000 ft
Mostly Cloudy 2700 ft
Mostly Cloudy 25000 ft
Heat Index 81 °F
Dew Point 68 °F
Humidity 70%
Rainfall 0.00 in
Snow Depth Not available.
UV 5 out of 12
Pollen 10.60 out of 12
Air Quality Not available.
Flu Activity Not available.
METAR KPBI 031553Z 10013KT 10SM SCT020 BKN027 BKN250 26/19 A3022 RMK AO2 SLP233 T02610194 $

More Conditions Fewer Conditions

Pressure 30.22 in
Visibility 10.0 miles
Clouds Scattered Clouds 2000 ft
Mostly Cloudy 2700 ft
Mostly Cloudy 25000 ft
Heat Index 81 °F
Dew Point 68 °F
Humidity 70%
Rainfall 0.00 in
Snow Depth Not available.
UV 5 out of 12
Pollen 10.60 out of 12
Air Quality Not available.
Flu Activity Not available.
METAR KPBI 031553Z 10013KT 10SM SCT020 BKN027 BKN250 26/19 A3022 RMK AO2 SLP233 T02610194 $

More Conditions Fewer Conditions

10-Day Weather Forecast

Almanac

Astronomy

Mar. 03, 2015 Rise Set
Actual Time
Civil Twilight
Nautical Twilight
Astronomical Twilight
Moon
Length of Visible Light
Length of Day
Tomorrow will be .
, % of the Moon is Illuminated

Today's Extremes

State Highs State Lows

Community

WunderPhotos

Upload Photos

1,802,156 photos uploaded!

WunderBlogs® & News

Nearby

Air Quality

  Air Quality AQ Index Pollutant
Not available.

Snow Depth

Station Depth Elevation

Earthquake Activity

City Distance Mag. Time & Date
Minimum magnitude displayed is 2.5.

Coastal Water Temperatures

Place Temperature

Nearby Weather Stations